createdAt,value
2023-06-15T00:04:28.324Z,23.70
2023-06-15T00:09:33.291Z,23.80
2023-06-15T00:14:36.789Z,23.70
2023-06-15T00:19:40.554Z,23.80
2023-06-15T00:24:45.519Z,23.80
2023-06-15T00:29:49.166Z,23.70
2023-06-15T00:34:52.905Z,23.70
2023-06-15T00:39:58.209Z,23.80
2023-06-15T00:45:01.709Z,23.70
2023-06-15T00:50:05.956Z,23.80
2023-06-15T00:55:13.890Z,23.70
2023-06-15T01:00:19.103Z,23.70
2023-06-15T01:05:24.420Z,23.70
2023-06-15T01:10:32.384Z,23.70
2023-06-15T01:15:35.961Z,23.70
2023-06-15T01:20:42.049Z,23.80
2023-06-15T01:26:08.221Z,23.70
2023-06-15T01:31:12.044Z,23.70
2023-06-15T01:36:15.629Z,23.70
2023-06-15T01:41:21.554Z,23.70
2023-06-15T01:46:25.817Z,23.70
2023-06-15T01:51:31.055Z,23.80
2023-06-15T01:56:35.918Z,23.60
2023-06-15T02:01:39.399Z,23.70
2023-06-15T02:06:42.873Z,23.70
2023-06-15T02:11:48.186Z,23.70
2023-06-15T02:16:52.123Z,23.70
2023-06-15T02:21:55.579Z,23.70
2023-06-15T02:27:00.444Z,23.70
2023-06-15T02:32:03.949Z,23.70
2023-06-15T02:37:07.623Z,23.70
2023-06-15T02:42:12.835Z,23.70
2023-06-15T02:47:16.470Z,23.70
2023-06-15T02:52:20.017Z,23.70
2023-06-15T02:57:25.474Z,23.60
2023-06-15T03:02:28.929Z,23.70
2023-06-15T03:07:32.336Z,23.70
2023-06-15T03:12:37.159Z,23.70
2023-06-15T03:17:40.898Z,23.70
2023-06-15T03:22:45.676Z,23.70
2023-06-15T03:27:54.454Z,23.70
2023-06-15T03:32:58.636Z,23.70
2023-06-15T03:38:02.157Z,23.70
2023-06-15T03:43:07.006Z,23.70
2023-06-15T03:48:10.489Z,23.70
2023-06-15T03:53:14.773Z,23.70
2023-06-15T03:58:20.436Z,23.70
2023-06-15T04:03:23.865Z,23.70
2023-06-15T04:08:27.816Z,23.70
2023-06-15T04:13:32.614Z,23.60
2023-06-15T04:18:36.126Z,23.60
2023-06-15T04:23:39.572Z,23.70
2023-06-15T04:28:46.692Z,23.70
2023-06-15T04:33:50.212Z,23.60
2023-06-15T04:38:53.762Z,23.70
2023-06-15T04:43:58.601Z,23.70
2023-06-15T04:49:02.093Z,23.70
2023-06-15T04:54:05.636Z,23.70
2023-06-15T04:59:10.561Z,23.70
2023-06-15T05:04:13.962Z,23.70
2023-06-15T05:09:17.386Z,23.70
2023-06-15T05:14:22.609Z,23.60
2023-06-15T05:19:26.277Z,23.60
2023-06-15T05:24:29.892Z,23.60
2023-06-15T05:29:34.826Z,23.60
2023-06-15T05:34:38.285Z,23.60
2023-06-15T05:39:41.778Z,23.60
2023-06-15T05:44:46.621Z,23.60
2023-06-15T05:49:50.142Z,23.60
2023-06-15T05:54:53.552Z,23.60
2023-06-15T05:59:58.364Z,23.60
2023-06-15T06:05:01.803Z,23.60
2023-06-15T06:10:06.000Z,23.60
2023-06-15T06:15:11.464Z,23.60
2023-06-15T06:20:15.323Z,23.60
2023-06-15T06:25:19.105Z,23.70
2023-06-15T06:30:24.203Z,23.60
2023-06-15T06:35:27.627Z,23.50
2023-06-15T06:40:31.670Z,23.50
2023-06-15T06:45:36.553Z,23.60
2023-06-15T06:50:39.973Z,23.70
2023-06-15T06:55:44.464Z,23.70
2023-06-15T07:00:49.264Z,23.70
2023-06-15T07:05:52.723Z,23.70
2023-06-15T07:10:56.296Z,23.70
2023-06-15T07:16:01.136Z,23.70
2023-06-15T07:21:04.749Z,23.60
2023-06-15T07:26:08.201Z,23.70
2023-06-15T07:31:13.028Z,23.70
2023-06-15T07:36:16.445Z,23.70
2023-06-15T07:41:20.190Z,23.70
2023-06-15T07:46:25.028Z,23.70
2023-06-15T07:51:38.853Z,23.70
2023-06-15T07:56:48.022Z,23.70
2023-06-15T08:01:52.862Z,23.70
2023-06-15T08:06:56.312Z,23.70
2023-06-15T08:11:59.793Z,23.80
2023-06-15T08:17:04.699Z,23.70
2023-06-15T08:22:08.434Z,23.70
2023-06-15T08:27:13.166Z,23.70
2023-06-15T08:32:18.059Z,23.70
2023-06-15T08:37:21.499Z,23.70
2023-06-15T08:42:27.343Z,23.70
2023-06-15T08:47:33.075Z,23.70
2023-06-15T08:52:38.138Z,23.70
2023-06-15T08:57:41.764Z,23.70
2023-06-15T09:02:48.220Z,23.70
2023-06-15T09:07:51.977Z,23.70
2023-06-15T09:12:56.432Z,23.80
2023-06-15T09:18:03.099Z,23.80
2023-06-15T09:23:07.339Z,23.70
2023-06-15T09:28:10.892Z,23.70
2023-06-15T09:33:18.280Z,23.80
2023-06-15T09:38:22.878Z,23.70
2023-06-15T09:43:26.514Z,23.80
2023-06-15T09:48:32.724Z,23.80
2023-06-15T09:53:36.440Z,23.80
2023-06-15T09:58:40.391Z,23.80
2023-06-15T10:03:45.870Z,23.70
2023-06-15T10:08:53.043Z,23.80
2023-06-15T10:13:59.233Z,23.80
2023-06-15T10:19:07.862Z,23.70
2023-06-15T10:24:14.088Z,23.80
2023-06-15T10:29:22.626Z,23.80
2023-06-15T10:34:33.024Z,23.70
2023-06-15T10:39:38.659Z,23.80
2023-06-15T10:44:42.361Z,23.80
2023-06-15T10:49:54.656Z,23.70
2023-06-15T10:55:01.317Z,23.80
2023-06-15T11:00:06.343Z,23.80
2023-06-15T11:05:13.789Z,23.80
2023-06-15T11:10:19.627Z,23.80
2023-06-15T11:15:23.292Z,23.70
2023-06-15T11:21:01.890Z,23.70
2023-06-15T11:26:05.603Z,23.70
2023-06-15T11:31:09.449Z,23.80
2023-06-15T11:36:14.452Z,23.80
2023-06-15T11:41:18.188Z,23.80
2023-06-15T11:46:22.738Z,23.80
2023-06-15T11:51:27.728Z,23.80
2023-06-15T11:56:31.302Z,23.80
2023-06-15T12:01:34.816Z,23.70
2023-06-15T12:06:39.907Z,23.80
2023-06-15T12:11:44.035Z,23.80
2023-06-15T12:16:51.086Z,23.90
2023-06-15T12:22:00.493Z,23.90
2023-06-15T12:27:06.950Z,23.80
2023-06-15T12:32:11.083Z,23.80
2023-06-15T12:37:16.956Z,23.80
2023-06-15T12:42:23.830Z,23.80
2023-06-15T12:47:27.430Z,23.80
2023-06-15T12:52:32.627Z,23.80
2023-06-15T12:57:36.190Z,23.90
2023-06-15T13:02:41.149Z,23.80
2023-06-15T13:07:47.014Z,23.80
2023-06-15T13:12:50.629Z,23.80
2023-06-15T13:17:54.525Z,23.90
2023-06-15T13:22:59.598Z,23.80
2023-06-15T13:28:03.497Z,23.80
2023-06-15T13:33:07.713Z,23.80
2023-06-15T13:38:12.751Z,23.80
2023-06-15T13:43:16.413Z,23.90
2023-06-15T13:48:19.965Z,23.80
2023-06-15T13:53:24.929Z,23.90
2023-06-15T13:58:28.421Z,23.90
2023-06-15T14:03:32.057Z,23.90
2023-06-15T14:08:37.037Z,23.80
2023-06-15T14:13:40.645Z,23.90
2023-06-15T14:18:44.441Z,23.90
2023-06-15T14:23:49.393Z,23.90
2023-06-15T14:34:16.327Z,23.80
2023-06-15T14:39:21.985Z,23.90
2023-06-15T14:44:25.865Z,23.90
2023-06-15T14:49:29.357Z,23.80
2023-06-15T14:54:34.287Z,23.90
2023-06-15T14:59:37.811Z,23.90
2023-06-15T15:04:41.571Z,23.90
2023-06-15T15:09:48.259Z,23.90
2023-06-15T15:14:53.415Z,23.90
2023-06-15T15:19:57.939Z,23.90
2023-06-15T15:25:03.192Z,23.90
2023-06-15T15:30:07.781Z,23.90
2023-06-15T15:35:11.768Z,23.90
2023-06-15T15:40:17.235Z,23.90
2023-06-15T15:45:21.154Z,23.90
2023-06-15T15:50:24.696Z,23.90
2023-06-15T16:00:52.326Z,24.00
2023-06-15T16:05:55.832Z,23.90
2023-06-15T16:11:00.663Z,23.90
2023-06-15T16:21:10.492Z,24.00
2023-06-15T16:26:15.345Z,24.00
2023-06-15T16:31:18.848Z,24.00
2023-06-15T16:36:22.301Z,24.00
2023-06-15T16:41:27.152Z,23.90
2023-06-15T16:46:30.700Z,23.90
2023-06-15T16:51:34.210Z,24.00
2023-06-15T16:56:40.153Z,24.00
2023-06-15T17:01:43.666Z,24.00
2023-06-15T17:06:47.092Z,24.00
2023-06-15T17:11:52.652Z,24.00
2023-06-15T17:16:56.262Z,24.10
2023-06-15T17:21:59.811Z,24.00
2023-06-15T17:27:05.131Z,24.00
2023-06-15T17:32:11.686Z,24.10
2023-06-15T17:37:15.589Z,24.00
2023-06-15T17:42:20.565Z,24.10
2023-06-15T17:47:24.110Z,24.00
2023-06-15T18:03:10.780Z,24.00
2023-06-15T18:08:14.312Z,24.10
2023-06-15T18:13:21.016Z,24.10
2023-06-15T18:18:24.746Z,24.10
2023-06-15T18:23:28.528Z,24.10
2023-06-15T18:28:33.490Z,24.10
2023-06-15T18:33:37.081Z,24.10
2023-06-15T18:38:40.588Z,24.10
2023-06-15T18:43:45.529Z,24.10
2023-06-15T18:48:49.047Z,24.20
2023-06-15T18:53:52.740Z,24.10
2023-06-15T18:58:57.737Z,24.10
2023-06-15T19:04:01.333Z,24.10
2023-06-15T19:09:05.753Z,24.20
2023-06-15T19:14:11.433Z,24.10
2023-06-15T19:19:15.440Z,24.20
2023-06-15T19:24:19.330Z,24.20
2023-06-15T19:29:24.313Z,24.10
2023-06-15T19:34:28.446Z,24.20
2023-06-15T19:39:32.052Z,24.20
2023-06-15T19:44:36.985Z,24.20
2023-06-15T19:49:40.952Z,24.10
2023-06-15T19:54:44.463Z,24.20
2023-06-15T19:59:49.360Z,24.20
2023-06-15T20:04:53.162Z,24.20
2023-06-15T20:09:56.665Z,24.20
2023-06-15T20:15:02.483Z,24.20
2023-06-15T20:20:07.192Z,24.10
2023-06-15T20:25:11.389Z,24.20
2023-06-15T20:30:16.930Z,24.20
2023-06-15T20:35:20.704Z,24.20
2023-06-15T20:40:24.369Z,24.20
2023-06-15T20:45:29.499Z,24.20
2023-06-15T20:50:33.541Z,24.30
2023-06-15T20:55:37.056Z,24.20
2023-06-15T21:00:42.023Z,24.30
2023-06-15T21:05:45.765Z,24.20
2023-06-15T21:10:49.393Z,24.20
2023-06-15T21:15:54.716Z,24.20
2023-06-15T21:20:58.358Z,24.30
2023-06-15T21:26:02.339Z,24.20
2023-06-15T21:36:28.363Z,24.20
2023-06-15T21:41:33.252Z,24.30
2023-06-15T21:46:38.151Z,24.20
2023-06-15T21:51:41.608Z,24.20
2023-06-15T21:56:45.063Z,24.30
2023-06-15T22:07:10.528Z,24.30
2023-06-15T22:12:13.992Z,24.30
2023-06-15T22:17:18.846Z,24.20
2023-06-15T22:22:22.698Z,24.20
2023-06-15T22:27:26.319Z,24.30
2023-06-15T22:32:31.552Z,24.30
2023-06-15T22:37:35.027Z,24.30
2023-06-15T22:42:38.469Z,24.30
2023-06-15T22:47:44.601Z,24.30
2023-06-15T22:52:48.096Z,24.20
2023-06-15T22:57:51.720Z,24.30
2023-06-15T23:02:56.666Z,24.30
2023-06-15T23:08:00.368Z,24.30
2023-06-15T23:13:03.950Z,24.30
2023-06-15T23:18:11.379Z,24.20
2023-06-15T23:23:16.084Z,24.30
2023-06-15T23:28:20.737Z,24.30
2023-06-15T23:33:25.614Z,24.40
2023-06-15T23:38:29.032Z,24.30
2023-06-15T23:43:32.500Z,24.40
2023-06-15T23:48:37.340Z,24.30
2023-06-15T23:53:40.962Z,24.30
2023-06-15T23:58:44.373Z,24.30
